createdAt,value
2019-04-07T00:01:51.425Z,60.87
2019-04-07T00:04:20.345Z,61.47
2019-04-07T00:06:48.920Z,62.50
2019-04-07T00:09:17.665Z,56.57
2019-04-07T00:11:46.091Z,63.83
2019-04-07T00:14:14.478Z,62.90
2019-04-07T00:17:04.033Z,67.17
2019-04-07T00:19:32.479Z,64.00
2019-04-07T00:22:00.953Z,60.63
2019-04-07T00:24:29.609Z,64.43
2019-04-07T00:26:58.095Z,57.07
2019-04-07T00:29:26.567Z,57.53
2019-04-07T00:31:55.010Z,61.50
2019-04-07T00:34:23.819Z,61.13
2019-04-07T00:36:52.535Z,61.93
2019-04-07T00:39:21.143Z,59.80
2019-04-07T00:41:49.652Z,62.87
2019-04-07T00:44:18.062Z,59.50
2019-04-07T00:46:46.465Z,67.53
2019-04-07T00:49:14.969Z,57.73
2019-04-07T00:51:43.661Z,60.00
2019-04-07T00:54:12.624Z,58.53
2019-04-07T00:56:41.234Z,65.60
2019-04-07T00:59:09.979Z,64.80
2019-04-07T01:01:38.538Z,63.57
2019-04-07T01:04:07.024Z,61.63
2019-04-07T01:06:35.706Z,62.13
2019-04-07T01:09:05.898Z,60.50
2019-04-07T01:11:34.360Z,54.10
2019-04-07T01:14:02.812Z,58.93
2019-04-07T01:16:31.634Z,61.43
2019-04-07T01:19:00.139Z,60.20
2019-04-07T01:21:30.337Z,60.60
2019-04-07T01:23:59.072Z,55.77
2019-04-07T01:26:27.569Z,60.77
2019-04-07T01:28:56.575Z,73.40
2019-04-07T01:31:25.122Z,69.87
2019-04-07T01:33:54.287Z,70.87
2019-04-07T01:36:22.891Z,63.87
2019-04-07T01:38:51.366Z,68.10
2019-04-07T01:41:27.603Z,66.17
2019-04-07T01:44:01.728Z,71.73
2019-04-07T01:46:52.516Z,70.33
2019-04-07T01:49:27.994Z,68.27
2019-04-07T01:52:04.167Z,72.67
2019-04-07T01:55:01.171Z,74.57
2019-04-07T01:57:47.788Z,65.73
2019-04-07T02:00:43.023Z,71.83
2019-04-07T02:03:20.732Z,73.50
2019-04-07T02:06:23.360Z,71.50
2019-04-07T02:09:00.816Z,68.30
2019-04-07T02:11:47.894Z,73.40
2019-04-07T02:14:22.470Z,70.63
2019-04-07T02:16:57.804Z,65.13
2019-04-07T02:19:41.671Z,68.03
2019-04-07T02:22:35.462Z,71.30
2019-04-07T02:25:17.314Z,74.57
2019-04-07T02:27:55.700Z,72.70
2019-04-07T02:30:33.199Z,74.77
2019-04-07T02:33:21.101Z,73.33
2019-04-07T02:36:15.534Z,74.87
2019-04-07T02:38:38.952Z,73.30
2019-04-07T02:41:33.244Z,74.23
2019-04-07T02:44:18.118Z,75.27
2019-04-07T02:47:21.404Z,74.37
2019-04-07T02:50:13.138Z,73.67
2019-04-07T02:52:59.592Z,76.77
2019-04-07T02:56:00.343Z,78.83
2019-04-07T02:58:53.108Z,75.10
2019-04-07T03:01:43.708Z,70.17
2019-04-07T03:04:46.568Z,73.87
2019-04-07T03:07:33.369Z,78.17
2019-04-07T03:10:12.977Z,77.37
2019-04-07T03:12:51.207Z,79.60
2019-04-07T03:15:48.402Z,78.27
2019-04-07T03:18:27.035Z,79.37
2019-04-07T03:21:15.875Z,86.67
2019-04-07T03:23:51.763Z,79.23
2019-04-07T03:26:38.158Z,84.27
2019-04-07T03:29:20.533Z,79.37
2019-04-07T03:32:10.257Z,87.67
2019-04-07T03:35:14.765Z,93.00
2019-04-07T03:38:16.990Z,85.07
2019-04-07T03:40:59.340Z,87.23
2019-04-07T03:43:52.810Z,84.63
2019-04-07T03:46:47.401Z,82.70
2019-04-07T03:49:23.835Z,82.60
2019-04-07T03:52:29.694Z,77.73
2019-04-07T03:55:08.680Z,75.30
2019-04-07T03:57:54.935Z,77.53
2019-04-07T04:01:17.519Z,73.90
2019-04-07T04:03:53.876Z,83.67
2019-04-07T04:06:40.676Z,82.63
2019-04-07T04:09:17.410Z,73.23
2019-04-07T04:12:13.545Z,76.60
2019-04-07T04:14:50.786Z,79.60
2019-04-07T04:17:19.504Z,80.17
2019-04-07T04:19:48.169Z,72.33
2019-04-07T04:22:16.629Z,79.60
2019-04-07T04:24:45.152Z,86.67
2019-04-07T04:27:13.524Z,79.40
2019-04-07T04:29:42.068Z,83.13
2019-04-07T04:32:10.677Z,83.90
2019-04-07T04:34:39.092Z,79.70
2019-04-07T04:37:08.075Z,77.73
2019-04-07T04:39:37.501Z,77.67
2019-04-07T04:42:06.127Z,75.47
2019-04-07T04:44:34.624Z,71.37
2019-04-07T04:47:03.118Z,72.90
2019-04-07T04:49:31.663Z,73.20
2019-04-07T04:52:00.463Z,68.50
2019-04-07T04:54:29.334Z,69.07
2019-04-07T04:56:57.733Z,69.67
2019-04-07T04:59:26.291Z,67.23
2019-04-07T05:01:56.465Z,69.27
2019-04-07T05:04:25.957Z,64.83
2019-04-07T05:06:55.268Z,66.80
2019-04-07T05:09:24.460Z,68.13
2019-04-07T05:11:53.024Z,69.90
2019-04-07T05:14:22.006Z,67.33
2019-04-07T05:16:50.624Z,59.50
2019-04-07T05:19:19.350Z,63.47
2019-04-07T05:21:47.847Z,69.33
2019-04-07T05:24:16.911Z,61.03
2019-04-07T05:26:45.613Z,62.57
2019-04-07T05:29:14.630Z,62.00
2019-04-07T05:31:43.869Z,64.13
2019-04-07T05:34:16.435Z,65.10
2019-04-07T05:36:43.327Z,65.53
2019-04-07T05:39:11.956Z,63.30
2019-04-07T05:41:40.358Z,62.20
2019-04-07T05:44:08.890Z,68.47
2019-04-07T05:46:40.256Z,69.67
2019-04-07T05:49:07.635Z,63.40
2019-04-07T05:51:36.124Z,66.23
2019-04-07T05:54:04.609Z,65.50
2019-04-07T05:56:33.153Z,61.37
2019-04-07T05:59:01.773Z,63.97
2019-04-07T06:01:30.348Z,64.13
2019-04-07T06:03:58.845Z,69.13
2019-04-07T06:06:27.905Z,69.70
2019-04-07T06:08:56.605Z,61.50
2019-04-07T06:11:25.086Z,63.73
2019-04-07T06:13:53.555Z,66.83
2019-04-07T06:16:22.587Z,67.03
2019-04-07T06:18:51.243Z,65.70
2019-04-07T06:21:19.726Z,57.27
2019-04-07T06:23:48.598Z,57.37
2019-04-07T06:26:17.526Z,60.03
2019-04-07T06:28:51.149Z,61.97
2019-04-07T06:31:16.483Z,63.13
2019-04-07T06:33:44.911Z,58.10
2019-04-07T06:36:17.303Z,52.67
2019-04-07T06:38:50.340Z,58.63
2019-04-07T06:41:13.840Z,53.43
2019-04-07T06:43:42.338Z,52.60
2019-04-07T06:46:36.875Z,54.00
2019-04-07T06:49:15.030Z,50.27
2019-04-07T06:52:05.845Z,58.30
2019-04-07T06:54:58.910Z,54.87
2019-04-07T06:57:55.675Z,48.33
2019-04-07T07:01:03.339Z,54.20
2019-04-07T07:03:53.827Z,46.80
2019-04-07T07:06:34.239Z,49.33
2019-04-07T07:09:31.789Z,46.53
2019-04-07T07:12:24.698Z,45.30
2019-04-07T07:15:07.937Z,44.67
2019-04-07T07:17:50.687Z,45.43
2019-04-07T07:20:36.157Z,39.90
2019-04-07T07:23:13.364Z,44.27
2019-04-07T07:25:42.451Z,41.93
2019-04-07T07:28:12.519Z,40.67
2019-04-07T07:30:41.468Z,36.73
2019-04-07T07:33:11.175Z,36.40
2019-04-07T07:35:39.847Z,41.33
2019-04-07T07:38:09.222Z,35.10
2019-04-07T07:40:38.530Z,39.63
2019-04-07T07:43:07.255Z,35.70
2019-04-07T07:45:36.210Z,34.90
2019-04-07T07:48:05.373Z,34.73
2019-04-07T07:50:34.710Z,37.67
2019-04-07T07:53:06.794Z,31.43
2019-04-07T07:55:37.620Z,33.10
2019-04-07T07:58:05.643Z,30.87
2019-04-07T08:00:40.005Z,31.63
2019-04-07T08:03:05.944Z,29.03
2019-04-07T08:05:34.701Z,29.53
2019-04-07T08:08:03.642Z,30.90
2019-04-07T08:10:32.169Z,32.83
2019-04-07T08:13:04.772Z,28.00
2019-04-07T08:15:32.239Z,29.83
2019-04-07T08:18:04.774Z,28.30
2019-04-07T08:20:31.740Z,28.53
2019-04-07T08:23:01.072Z,27.40
2019-04-07T08:25:30.259Z,25.50
2019-04-07T08:28:02.165Z,26.47
2019-04-07T08:30:29.115Z,24.40
2019-04-07T08:32:59.524Z,24.87
2019-04-07T08:35:28.770Z,24.43
2019-04-07T08:37:57.623Z,23.47
2019-04-07T08:40:27.442Z,21.67
2019-04-07T08:42:56.174Z,23.30
2019-04-07T08:45:26.766Z,19.90
2019-04-07T08:47:55.472Z,19.30
2019-04-07T08:50:27.669Z,19.00
2019-04-07T08:52:55.351Z,19.63
2019-04-07T08:55:23.991Z,19.93
2019-04-07T08:57:52.636Z,18.97
2019-04-07T09:00:23.335Z,20.07
2019-04-07T09:03:02.154Z,18.33
2019-04-07T09:05:27.769Z,17.40
2019-04-07T09:07:55.827Z,17.87
2019-04-07T09:10:34.811Z,17.97
2019-04-07T09:13:10.429Z,26.10
2019-04-07T09:15:49.993Z,17.27
2019-04-07T09:18:28.104Z,16.77
2019-04-07T09:21:18.336Z,15.47
2019-04-07T09:24:04.952Z,15.43
2019-04-07T09:26:52.592Z,15.50
2019-04-07T09:29:39.281Z,14.40
2019-04-07T09:32:36.047Z,14.67
2019-04-07T09:35:32.086Z,14.93
2019-04-07T09:38:21.662Z,14.27
2019-04-07T09:41:01.658Z,14.10
2019-04-07T09:43:48.522Z,15.77
2019-04-07T09:46:34.463Z,14.53
2019-04-07T09:49:26.067Z,15.23
2019-04-07T09:52:15.702Z,14.33
2019-04-07T09:55:09.722Z,16.33
2019-04-07T09:57:50.708Z,14.63
2019-04-07T10:00:27.092Z,17.00
2019-04-07T10:03:16.343Z,14.13
2019-04-07T10:06:10.684Z,14.43
2019-04-07T10:08:55.462Z,14.73
2019-04-07T10:11:33.896Z,14.50
2019-04-07T10:14:27.787Z,14.93
2019-04-07T10:17:14.437Z,15.13
2019-04-07T10:20:02.232Z,14.90
2019-04-07T10:22:46.185Z,14.67
2019-04-07T10:25:40.306Z,15.47
2019-04-07T10:28:17.606Z,16.57
2019-04-07T10:31:04.715Z,15.53
2019-04-07T10:33:45.064Z,15.60
2019-04-07T10:36:45.017Z,15.83
2019-04-07T10:39:31.832Z,16.37
2019-04-07T10:42:19.007Z,16.73
2019-04-07T10:45:05.887Z,15.73
2019-04-07T10:47:56.815Z,15.63
2019-04-07T10:50:42.675Z,15.33
2019-04-07T10:53:30.853Z,15.63
2019-04-07T10:56:17.472Z,17.13
2019-04-07T10:59:17.537Z,15.57
2019-04-07T11:02:02.508Z,16.17
2019-04-07T11:04:51.374Z,16.30
2019-04-07T11:07:38.239Z,14.87
2019-04-07T11:10:32.983Z,15.77
2019-04-07T11:13:22.058Z,16.77
2019-04-07T11:16:10.282Z,21.33
2019-04-07T11:19:04.561Z,18.03
2019-04-07T11:22:04.634Z,18.07
2019-04-07T11:24:51.505Z,18.30
2019-04-07T11:27:51.616Z,18.53
2019-04-07T11:30:45.418Z,17.93
2019-04-07T11:33:41.428Z,19.23
2019-04-07T11:36:18.000Z,19.17
2019-04-07T11:39:03.924Z,20.10
2019-04-07T11:41:54.811Z,23.07
2019-04-07T11:44:36.614Z,19.57
2019-04-07T11:47:28.717Z,18.43
2019-04-07T11:50:04.971Z,19.57
2019-04-07T11:52:48.314Z,18.73
2019-04-07T11:55:39.171Z,19.73
2019-04-07T11:58:16.946Z,19.63
2019-04-07T12:01:04.650Z,19.83
2019-04-07T12:03:55.827Z,19.63
2019-04-07T12:06:51.601Z,20.87
2019-04-07T12:09:37.607Z,21.93
2019-04-07T12:15:24.194Z,21.53
2019-04-07T12:18:09.736Z,20.00
2019-04-07T12:20:47.248Z,19.63
2019-04-07T12:23:54.859Z,18.73
2019-04-07T12:26:37.326Z,19.93
2019-04-07T12:29:28.703Z,21.30
2019-04-07T12:32:17.055Z,20.43
2019-04-07T12:35:04.152Z,20.70
2019-04-07T12:38:01.530Z,19.17
2019-04-07T12:40:41.981Z,20.17
2019-04-07T12:43:33.926Z,20.70
2019-04-07T12:46:25.432Z,20.23
2019-04-07T12:49:09.050Z,23.27
2019-04-07T12:51:55.994Z,24.27
2019-04-07T12:54:34.206Z,21.67
2019-04-07T12:57:17.676Z,21.47
2019-04-07T13:00:08.435Z,21.60
2019-04-07T13:02:57.073Z,20.60
2019-04-07T13:05:54.127Z,21.10
2019-04-07T13:08:29.171Z,22.20
2019-04-07T13:11:25.398Z,21.10
2019-04-07T13:14:22.531Z,25.10
2019-04-07T13:17:12.618Z,24.20
2019-04-07T13:19:58.662Z,22.33
2019-04-07T13:22:45.580Z,20.87
2019-04-07T13:25:23.956Z,21.67
2019-04-07T13:27:59.898Z,21.27
2019-04-07T13:30:36.565Z,23.37
2019-04-07T13:33:20.247Z,22.83
2019-04-07T13:36:28.362Z,21.27
2019-04-07T13:39:39.209Z,20.20
2019-04-07T13:42:16.401Z,20.87
2019-04-07T13:45:03.953Z,20.83
2019-04-07T13:47:42.068Z,17.70
2019-04-07T13:50:24.678Z,18.17
2019-04-07T13:53:18.412Z,18.57
2019-04-07T13:56:12.109Z,20.90
2019-04-07T13:59:10.125Z,17.50
2019-04-07T14:02:06.382Z,18.87
2019-04-07T14:04:38.045Z,18.10
2019-04-07T14:07:26.302Z,18.53
2019-04-07T14:10:11.336Z,18.17
2019-04-07T14:13:05.298Z,18.73
2019-04-07T14:16:04.449Z,23.67
2019-04-07T14:18:54.340Z,20.23
2019-04-07T14:21:50.471Z,17.40
2019-04-07T14:24:48.244Z,17.97
2019-04-07T14:27:32.581Z,17.40
2019-04-07T14:30:18.058Z,17.93
2019-04-07T14:33:02.279Z,19.07
2019-04-07T14:35:45.960Z,16.90
2019-04-07T14:38:27.605Z,17.43
2019-04-07T14:41:14.808Z,19.47
2019-04-07T14:44:15.102Z,17.83
2019-04-07T14:46:55.656Z,18.80
2019-04-07T14:50:02.046Z,17.00
2019-04-07T14:53:07.774Z,17.67
2019-04-07T14:55:50.906Z,17.27
2019-04-07T14:58:36.923Z,16.30
2019-04-07T15:01:37.855Z,18.00
2019-04-07T15:04:06.529Z,18.83
2019-04-07T15:06:37.082Z,17.37
2019-04-07T15:09:22.562Z,19.43
2019-04-07T15:11:59.855Z,16.80
2019-04-07T15:14:31.472Z,17.30
2019-04-07T15:17:00.327Z,17.63
2019-04-07T15:19:38.651Z,17.87
2019-04-07T15:22:07.864Z,21.07
2019-04-07T15:24:37.645Z,17.10
2019-04-07T15:27:07.138Z,17.93
2019-04-07T15:29:40.767Z,17.47
2019-04-07T15:32:07.208Z,18.37
2019-04-07T15:34:39.568Z,18.17
2019-04-07T15:37:06.793Z,19.23
2019-04-07T15:39:42.778Z,17.83
2019-04-07T15:42:14.989Z,18.73
2019-04-07T15:44:42.746Z,19.10
2019-04-07T15:47:12.035Z,17.80
2019-04-07T15:49:41.909Z,20.07
2019-04-07T15:52:11.265Z,20.93
2019-04-07T15:54:40.296Z,19.10
2019-04-07T15:57:09.966Z,19.37
2019-04-07T15:59:39.269Z,19.70
2019-04-07T16:02:10.834Z,17.80
2019-04-07T16:04:38.388Z,18.07
2019-04-07T16:07:06.901Z,18.53
2019-04-07T16:09:45.210Z,18.80
2019-04-07T16:12:06.495Z,18.30
2019-04-07T16:14:35.212Z,19.27
2019-04-07T16:17:06.330Z,19.17
2019-04-07T16:19:40.359Z,18.90
2019-04-07T16:22:06.034Z,18.13
2019-04-07T16:24:34.780Z,20.53
2019-04-07T16:27:06.528Z,22.40
2019-04-07T16:29:33.673Z,20.47
2019-04-07T16:32:03.011Z,17.87
2019-04-07T16:34:31.577Z,18.93
2019-04-07T16:37:00.460Z,18.20
2019-04-07T16:39:32.402Z,18.60
2019-04-07T16:41:59.362Z,19.10
2019-04-07T16:44:27.956Z,19.00
2019-04-07T16:46:59.184Z,18.60
2019-04-07T16:49:26.952Z,19.70
2019-04-07T16:51:58.296Z,20.57
2019-04-07T16:54:26.543Z,21.23
2019-04-07T16:56:57.510Z,20.20
2019-04-07T16:59:26.332Z,21.13
2019-04-07T17:01:55.059Z,22.07
2019-04-07T17:04:24.438Z,22.57
2019-04-07T17:07:00.240Z,23.40
2019-04-07T17:09:29.344Z,25.33
2019-04-07T17:11:57.900Z,22.27
2019-04-07T17:14:26.909Z,26.40
2019-04-07T17:16:55.838Z,23.60
2019-04-07T17:19:27.309Z,23.13
2019-04-07T17:21:56.293Z,23.27
2019-04-07T17:24:28.995Z,22.17
2019-04-07T17:26:56.300Z,25.10
2019-04-07T17:29:27.434Z,24.00
2019-04-07T17:31:55.533Z,25.27
2019-04-07T17:34:24.133Z,23.90
2019-04-07T17:36:55.980Z,25.20
2019-04-07T17:39:41.945Z,22.77
2019-04-07T17:42:14.476Z,23.90
2019-04-07T17:45:11.694Z,25.40
2019-04-07T17:48:04.081Z,25.83
2019-04-07T17:50:49.844Z,23.37
2019-04-07T17:53:41.285Z,23.33
2019-04-07T17:56:29.847Z,25.53
2019-04-07T17:59:24.236Z,23.73
2019-04-07T18:02:04.470Z,25.03
2019-04-07T18:04:51.969Z,24.23
2019-04-07T18:07:28.737Z,24.80
2019-04-07T18:10:32.443Z,24.47
2019-04-07T18:13:43.301Z,24.20
2019-04-07T18:16:21.244Z,26.53
2019-04-07T18:19:10.906Z,24.70
2019-04-07T18:22:18.188Z,30.10
2019-04-07T18:24:59.647Z,27.10
2019-04-07T18:27:55.437Z,28.10
2019-04-07T18:30:35.837Z,27.30
2019-04-07T18:33:31.360Z,26.60
2019-04-07T18:36:14.586Z,27.13
2019-04-07T18:39:01.236Z,27.67
2019-04-07T18:41:58.405Z,25.07
2019-04-07T18:44:40.372Z,26.60
2019-04-07T18:47:44.593Z,26.93
2019-04-07T18:50:43.320Z,27.10
2019-04-07T18:53:33.903Z,26.30
2019-04-07T18:56:25.080Z,25.87
2019-04-07T18:59:20.359Z,27.73
2019-04-07T19:01:56.230Z,24.33
2019-04-07T19:04:31.660Z,31.83
2019-04-07T19:07:16.974Z,23.47
2019-04-07T19:10:15.493Z,24.90
2019-04-07T19:13:05.039Z,25.43
2019-04-07T19:15:51.984Z,26.73
2019-04-07T19:18:40.215Z,26.73
2019-04-07T19:21:27.869Z,26.63
2019-04-07T19:24:19.549Z,27.23
2019-04-07T19:26:54.941Z,27.10
2019-04-07T19:29:43.066Z,24.95
2019-04-07T19:32:27.644Z,27.40
2019-04-07T19:35:15.159Z,25.80
2019-04-07T19:38:02.737Z,24.27
2019-04-07T19:40:42.085Z,25.87
2019-04-07T19:43:36.109Z,28.53
2019-04-07T19:46:26.470Z,25.50
2019-04-07T19:49:20.580Z,29.10
2019-04-07T19:52:05.401Z,25.53
2019-04-07T19:54:51.076Z,27.67
2019-04-07T19:57:37.379Z,26.47
2019-04-07T20:00:31.041Z,26.70
2019-04-07T20:03:36.970Z,23.60
2019-04-07T20:06:12.912Z,27.10
2019-04-07T20:09:17.078Z,25.30
2019-04-07T20:12:06.498Z,26.60
2019-04-07T20:15:06.572Z,24.60
2019-04-07T20:17:39.271Z,25.63
2019-04-07T20:20:26.712Z,26.67
2019-04-07T20:23:23.306Z,26.00
2019-04-07T20:26:22.291Z,25.23
2019-04-07T20:29:12.634Z,25.27
2019-04-07T20:31:59.321Z,28.90
2019-04-07T20:34:50.088Z,25.60
2019-04-07T20:37:46.715Z,26.63
2019-04-07T20:40:25.775Z,28.70
2019-04-07T20:43:17.565Z,29.03
2019-04-07T20:46:13.133Z,26.43
2019-04-07T20:48:54.022Z,31.50
2019-04-07T20:51:50.651Z,26.13
2019-04-07T20:54:34.529Z,24.37
2019-04-07T20:57:39.272Z,26.90
2019-04-07T21:00:26.021Z,26.07
2019-04-07T21:03:23.677Z,26.50
2019-04-07T21:06:17.358Z,27.77
2019-04-07T21:09:03.848Z,30.17
2019-04-07T21:11:45.808Z,26.67
2019-04-07T21:14:31.513Z,30.27
2019-04-07T21:17:22.304Z,28.27
2019-04-07T21:20:11.814Z,29.97
2019-04-07T21:22:48.637Z,29.67
2019-04-07T21:25:42.120Z,30.60
2019-04-07T21:28:22.646Z,29.67
2019-04-07T21:31:14.169Z,30.13
2019-04-07T21:33:59.188Z,31.87
2019-04-07T21:36:39.304Z,28.33
2019-04-07T21:39:16.292Z,27.70
2019-04-07T21:41:58.381Z,27.27
2019-04-07T21:44:40.089Z,30.07
2019-04-07T21:47:26.706Z,30.53
2019-04-07T21:50:26.910Z,29.80
2019-04-07T21:53:08.453Z,30.63
2019-04-07T21:55:59.316Z,31.77
2019-04-07T21:58:51.998Z,31.93
2019-04-07T22:01:38.936Z,31.13
2019-04-07T22:04:24.886Z,31.63
2019-04-07T22:07:09.094Z,32.40
2019-04-07T22:09:42.771Z,33.73
2019-04-07T22:12:11.384Z,33.70
2019-04-07T22:14:41.829Z,34.43
2019-04-07T22:17:10.072Z,31.93
2019-04-07T22:19:44.130Z,34.03
2019-04-07T22:22:08.821Z,34.33
2019-04-07T22:24:38.330Z,35.20
2019-04-07T22:27:07.639Z,33.63
2019-04-07T22:29:36.119Z,37.27
2019-04-07T22:32:05.316Z,33.23
2019-04-07T22:34:34.100Z,34.10
2019-04-07T22:37:02.669Z,33.70
2019-04-07T22:39:32.082Z,33.77
2019-04-07T22:42:00.805Z,33.87
2019-04-07T22:44:29.392Z,36.70
2019-04-07T22:46:58.599Z,35.73
2019-04-07T22:49:31.497Z,32.70
2019-04-07T22:51:57.679Z,34.07
2019-04-07T22:54:30.158Z,39.23
2019-04-07T22:56:56.589Z,36.83
2019-04-07T22:59:25.941Z,38.00
2019-04-07T23:02:00.716Z,37.93
2019-04-07T23:04:30.000Z,40.83
2019-04-07T23:06:58.676Z,39.07
2019-04-07T23:09:27.248Z,37.10
2019-04-07T23:11:56.595Z,39.57
2019-04-07T23:14:25.410Z,40.27
2019-04-07T23:16:54.257Z,40.53
2019-04-07T23:19:22.853Z,40.63
2019-04-07T23:21:51.352Z,36.00
2019-04-07T23:24:19.874Z,43.57
2019-04-07T23:26:48.842Z,37.87
2019-04-07T23:29:17.722Z,40.43
2019-04-07T23:31:47.159Z,38.73
2019-04-07T23:34:15.758Z,37.67
2019-04-07T23:36:44.288Z,38.97
2019-04-07T23:39:13.130Z,41.00
2019-04-07T23:41:41.820Z,41.47
2019-04-07T23:44:10.315Z,41.00
2019-04-07T23:46:39.333Z,40.33
2019-04-07T23:49:07.990Z,42.57
2019-04-07T23:51:37.192Z,40.57
2019-04-07T23:54:07.412Z,43.70
2019-04-07T23:56:36.084Z,42.57
2019-04-07T23:59:04.760Z,44.77
